sensor_id;sensor_type;location;lat;lon;timestamp;pressure;altitude;pressure_sealevel;temperature;humidity
19128;BME280;9696;53.686;10.094;2023-05-22T00:01:06;101619.69;;;16.06;100.00
19128;BME280;9696;53.686;10.094;2023-05-22T00:03:36;101615.91;;;16.09;100.00
19128;BME280;9696;53.686;10.094;2023-05-22T00:06:05;101621.50;;;16.06;100.00
19128;BME280;9696;53.686;10.094;2023-05-22T00:08:37;101623.00;;;16.08;100.00
19128;BME280;9696;53.686;10.094;2023-05-22T00:11:06;101623.31;;;16.05;100.00
19128;BME280;9696;53.686;10.094;2023-05-22T00:13:35;101615.53;;;16.03;100.00
19128;BME280;9696;53.686;10.094;2023-05-22T00:16:06;101616.81;;;15.99;100.00
19128;BME280;9696;53.686;10.094;2023-05-22T00:18:35;101617.78;;;15.98;100.00
19128;BME280;9696;53.686;10.094;2023-05-22T00:21:05;101606.78;;;15.93;100.00
19128;BME280;9696;53.686;10.094;2023-05-22T00:23:34;101616.94;;;15.98;100.00
19128;BME280;9696;53.686;10.094;2023-05-22T00:26:03;101612.06;;;15.93;100.00
19128;BME280;9696;53.686;10.094;2023-05-22T00:28:32;101611.78;;;15.96;100.00
19128;BME280;9696;53.686;10.094;2023-05-22T00:31:01;101610.56;;;15.91;100.00
19128;BME280;9696;53.686;10.094;2023-05-22T00:33:32;101605.69;;;15.86;100.00
19128;BME280;9696;53.686;10.094;2023-05-22T00:36:01;101608.91;;;15.80;100.00
19128;BME280;9696;53.686;10.094;2023-05-22T00:38:31;101610.59;;;15.81;100.00
19128;BME280;9696;53.686;10.094;2023-05-22T00:41:01;101612.03;;;15.76;100.00
19128;BME280;9696;53.686;10.094;2023-05-22T00:43:31;101611.59;;;15.71;100.00
19128;BME280;9696;53.686;10.094;2023-05-22T00:46:00;101609.81;;;15.71;100.00
19128;BME280;9696;53.686;10.094;2023-05-22T00:48:31;101613.28;;;15.72;100.00
19128;BME280;9696;53.686;10.094;2023-05-22T00:51:00;101605.22;;;15.64;100.00
19128;BME280;9696;53.686;10.094;2023-05-22T00:53:30;101602.59;;;15.64;100.00
19128;BME280;9696;53.686;10.094;2023-05-22T00:55:59;101608.84;;;15.63;100.00
19128;BME280;9696;53.686;10.094;2023-05-22T00:58:29;101606.38;;;15.51;100.00
19128;BME280;9696;53.686;10.094;2023-05-22T01:00:58;101608.84;;;15.53;100.00
19128;BME280;9696;53.686;10.094;2023-05-22T01:03:28;101606.50;;;15.50;100.00
19128;BME280;9696;53.686;10.094;2023-05-22T01:06:00;101606.22;;;15.43;100.00
19128;BME280;9696;53.686;10.094;2023-05-22T01:08:29;101609.16;;;15.40;100.00
19128;BME280;9696;53.686;10.094;2023-05-22T01:11:03;101610.56;;;15.35;100.00
19128;BME280;9696;53.686;10.094;2023-05-22T01:13:41;101601.50;;;15.37;100.00
19128;BME280;9696;53.686;10.094;2023-05-22T01:16:23;101604.56;;;15.33;100.00
19128;BME280;9696;53.686;10.094;2023-05-22T01:19:04;101600.94;;;15.34;100.00
19128;BME280;9696;53.686;10.094;2023-05-22T01:21:45;101605.97;;;15.27;100.00
19128;BME280;9696;53.686;10.094;2023-05-22T01:24:50;101601.94;;;15.23;100.00
19128;BME280;9696;53.686;10.094;2023-05-22T01:27:47;101607.22;;;15.23;100.00
19128;BME280;9696;53.686;10.094;2023-05-22T01:30:48;101596.66;;;15.23;100.00
19128;BME280;9696;53.686;10.094;2023-05-22T01:33:18;101605.25;;;15.25;100.00
19128;BME280;9696;53.686;10.094;2023-05-22T01:35:54;101598.59;;;15.21;100.00
19128;BME280;9696;53.686;10.094;2023-05-22T01:38:25;101591.50;;;15.22;100.00
19128;BME280;9696;53.686;10.094;2023-05-22T01:40:55;101601.53;;;15.18;100.00
19128;BME280;9696;53.686;10.094;2023-05-22T01:43:26;101587.75;;;15.15;100.00
19128;BME280;9696;53.686;10.094;2023-05-22T01:45:57;101600.13;;;15.14;100.00
19128;BME280;9696;53.686;10.094;2023-05-22T01:48:27;101599.16;;;15.15;100.00
19128;BME280;9696;53.686;10.094;2023-05-22T01:50:59;101588.59;;;15.15;100.00
19128;BME280;9696;53.686;10.094;2023-05-22T01:53:34;101594.16;;;15.12;100.00
19128;BME280;9696;53.686;10.094;2023-05-22T01:56:09;101594.31;;;15.10;100.00
19128;BME280;9696;53.686;10.094;2023-05-22T01:58:44;101590.44;;;15.05;100.00
19128;BME280;9696;53.686;10.094;2023-05-22T02:01:19;101593.75;;;15.07;100.00
19128;BME280;9696;53.686;10.094;2023-05-22T02:03:53;101594.31;;;15.01;100.00
19128;BME280;9696;53.686;10.094;2023-05-22T02:06:25;101594.88;;;14.95;100.00
19128;BME280;9696;53.686;10.094;2023-05-22T02:08:56;101586.81;;;14.96;100.00
19128;BME280;9696;53.686;10.094;2023-05-22T02:11:27;101589.72;;;14.93;100.00
19128;BME280;9696;53.686;10.094;2023-05-22T02:13:57;101586.81;;;14.96;100.00
19128;BME280;9696;53.686;10.094;2023-05-22T02:16:29;101577.34;;;14.94;100.00
19128;BME280;9696;53.686;10.094;2023-05-22T02:18:59;101580.56;;;14.88;100.00
19128;BME280;9696;53.686;10.094;2023-05-22T02:21:33;101581.94;;;14.82;100.00
19128;BME280;9696;53.686;10.094;2023-05-22T02:24:03;101576.94;;;14.79;100.00
19128;BME280;9696;53.686;10.094;2023-05-22T02:26:32;101577.78;;;14.80;100.00
19128;BME280;9696;53.686;10.094;2023-05-22T02:29:02;101573.47;;;14.79;100.00
19128;BME280;9696;53.686;10.094;2023-05-22T02:31:32;101573.16;;;14.82;100.00
19128;BME280;9696;53.686;10.094;2023-05-22T02:34:02;101568.72;;;14.82;100.00
19128;BME280;9696;53.686;10.094;2023-05-22T02:36:33;101564.56;;;14.80;100.00
19128;BME280;9696;53.686;10.094;2023-05-22T02:39:04;101565.41;;;14.80;100.00
19128;BME280;9696;53.686;10.094;2023-05-22T02:41:33;101566.38;;;14.79;100.00
19128;BME280;9696;53.686;10.094;2023-05-22T02:44:03;101572.78;;;14.77;100.00
19128;BME280;9696;53.686;10.094;2023-05-22T02:46:34;101569.00;;;14.79;100.00
19128;BME280;9696;53.686;10.094;2023-05-22T02:49:03;101554.97;;;14.79;100.00
19128;BME280;9696;53.686;10.094;2023-05-22T02:51:32;101558.72;;;14.76;100.00
19128;BME280;9696;53.686;10.094;2023-05-22T02:54:01;101552.59;;;14.76;100.00
19128;BME280;9696;53.686;10.094;2023-05-22T02:56:31;101555.38;;;14.74;100.00
19128;BME280;9696;53.686;10.094;2023-05-22T02:59:00;101550.81;;;14.76;100.00
19128;BME280;9696;53.686;10.094;2023-05-22T03:01:30;101543.72;;;14.77;100.00
19128;BME280;9696;53.686;10.094;2023-05-22T03:04:00;101549.13;;;14.75;100.00
19128;BME280;9696;53.686;10.094;2023-05-22T03:06:30;101545.94;;;14.72;100.00
19128;BME280;9696;53.686;10.094;2023-05-22T03:08:59;101542.47;;;14.71;100.00
19128;BME280;9696;53.686;10.094;2023-05-22T03:11:30;101538.13;;;14.70;100.00
19128;BME280;9696;53.686;10.094;2023-05-22T03:13:59;101544.53;;;14.68;100.00
19128;BME280;9696;53.686;10.094;2023-05-22T03:16:28;101540.09;;;14.68;100.00
19128;BME280;9696;53.686;10.094;2023-05-22T03:19:09;101528.56;;;14.69;100.00
19128;BME280;9696;53.686;10.094;2023-05-22T03:21:38;101535.66;;;14.69;100.00
19128;BME280;9696;53.686;10.094;2023-05-22T03:24:08;101532.72;;;14.72;100.00
19128;BME280;9696;53.686;10.094;2023-05-22T03:26:38;101527.72;;;14.69;100.00
19128;BME280;9696;53.686;10.094;2023-05-22T03:29:09;101528.13;;;14.74;100.00
19128;BME280;9696;53.686;10.094;2023-05-22T03:31:41;101530.09;;;14.81;100.00
19128;BME280;9696;53.686;10.094;2023-05-22T03:34:15;101523.69;;;14.84;100.00
19128;BME280;9696;53.686;10.094;2023-05-22T03:36:46;101528.00;;;14.85;100.00
19128;BME280;9696;53.686;10.094;2023-05-22T03:39:17;101524.66;;;14.83;100.00
19128;BME280;9696;53.686;10.094;2023-05-22T03:41:55;101525.63;;;14.91;100.00
19128;BME280;9696;53.686;10.094;2023-05-22T03:44:25;101516.19;;;14.89;100.00
19128;BME280;9696;53.686;10.094;2023-05-22T03:46:54;101516.88;;;14.91;100.00
19128;BME280;9696;53.686;10.094;2023-05-22T03:49:25;101519.63;;;14.99;100.00
19128;BME280;9696;53.686;10.094;2023-05-22T03:51:54;101520.03;;;15.04;100.00
19128;BME280;9696;53.686;10.094;2023-05-22T03:54:23;101517.94;;;15.07;100.00
19128;BME280;9696;53.686;10.094;2023-05-22T03:56:52;101518.91;;;15.06;100.00
19128;BME280;9696;53.686;10.094;2023-05-22T03:59:21;101514.22;;;15.00;100.00
19128;BME280;9696;53.686;10.094;2023-05-22T04:01:51;101516.69;;;15.12;100.00
19128;BME280;9696;53.686;10.094;2023-05-22T04:04:20;101511.53;;;15.10;100.00
19128;BME280;9696;53.686;10.094;2023-05-22T04:06:52;101516.53;;;15.13;100.00
19128;BME280;9696;53.686;10.094;2023-05-22T04:09:21;101513.09;;;15.13;100.00
19128;BME280;9696;53.686;10.094;2023-05-22T04:11:51;101510.16;;;15.16;100.00
19128;BME280;9696;53.686;10.094;2023-05-22T04:14:20;101507.19;;;15.28;100.00
19128;BME280;9696;53.686;10.094;2023-05-22T04:16:49;101509.28;;;15.25;100.00
19128;BME280;9696;53.686;10.094;2023-05-22T04:19:18;101503.41;;;15.31;100.00
19128;BME280;9696;53.686;10.094;2023-05-22T04:21:48;101503.84;;;15.26;100.00
19128;BME280;9696;53.686;10.094;2023-05-22T04:24:19;101502.44;;;15.32;100.00
19128;BME280;9696;53.686;10.094;2023-05-22T04:26:49;101507.16;;;15.38;100.00
19128;BME280;9696;53.686;10.094;2023-05-22T04:29:19;101496.72;;;15.36;100.00
19128;BME280;9696;53.686;10.094;2023-05-22T04:31:49;101506.59;;;15.34;100.00
19128;BME280;9696;53.686;10.094;2023-05-22T04:34:21;101506.16;;;15.48;100.00
19128;BME280;9696;53.686;10.094;2023-05-22T04:36:50;101502.41;;;15.51;100.00
19128;BME280;9696;53.686;10.094;2023-05-22T04:39:21;101504.31;;;15.59;100.00
19128;BME280;9696;53.686;10.094;2023-05-22T04:41:53;101497.47;;;15.66;100.00
19128;BME280;9696;53.686;10.094;2023-05-22T04:44:22;101502.53;;;15.77;100.00
19128;BME280;9696;53.686;10.094;2023-05-22T04:46:52;101492.75;;;15.87;100.00
19128;BME280;9696;53.686;10.094;2023-05-22T04:49:24;101493.97;;;15.92;100.00
19128;BME280;9696;53.686;10.094;2023-05-22T04:51:53;101501.06;;;16.19;100.00
19128;BME280;9696;53.686;10.094;2023-05-22T04:54:25;101490.66;;;16.43;100.00
19128;BME280;9696;53.686;10.094;2023-05-22T04:56:54;101487.78;;;16.90;100.00
19128;BME280;9696;53.686;10.094;2023-05-22T04:59:23;101488.19;;;17.03;100.00
19128;BME280;9696;53.686;10.094;2023-05-22T05:01:53;101484.44;;;17.39;100.00
19128;BME280;9696;53.686;10.094;2023-05-22T05:04:22;101484.44;;;17.65;100.00
19128;BME280;9696;53.686;10.094;2023-05-22T05:06:51;101470.88;;;17.51;100.00
19128;BME280;9696;53.686;10.094;2023-05-22T05:09:21;101479.34;;;17.20;100.00
19128;BME280;9696;53.686;10.094;2023-05-22T05:11:52;101483.50;;;17.23;100.00
19128;BME280;9696;53.686;10.094;2023-05-22T05:14:21;101486.94;;;17.15;100.00
19128;BME280;9696;53.686;10.094;2023-05-22T05:16:50;101485.53;;;17.03;100.00
19128;BME280;9696;53.686;10.094;2023-05-22T05:19:20;101484.28;;;17.15;100.00
19128;BME280;9696;53.686;10.094;2023-05-22T05:21:49;101479.50;;;17.19;100.00
19128;BME280;9696;53.686;10.094;2023-05-22T05:24:20;101473.31;;;17.36;100.00
19128;BME280;9696;53.686;10.094;2023-05-22T05:26:51;101472.59;;;17.26;100.00
19128;BME280;9696;53.686;10.094;2023-05-22T05:29:20;101474.47;;;17.33;100.00
19128;BME280;9696;53.686;10.094;2023-05-22T05:31:58;101480.06;;;17.30;100.00
19128;BME280;9696;53.686;10.094;2023-05-22T05:34:46;101472.47;;;17.35;100.00
19128;BME280;9696;53.686;10.094;2023-05-22T05:37:33;101468.16;;;17.60;100.00
19128;BME280;9696;53.686;10.094;2023-05-22T05:40:06;101468.22;;;17.76;100.00
19128;BME280;9696;53.686;10.094;2023-05-22T05:42:41;101475.31;;;17.68;100.00
19128;BME280;9696;53.686;10.094;2023-05-22T05:45:12;101466.75;;;17.90;100.00
19128;BME280;9696;53.686;10.094;2023-05-22T05:47:42;101453.31;;;17.92;100.00
19128;BME280;9696;53.686;10.094;2023-05-22T05:50:12;101463.00;;;18.25;100.00
19128;BME280;9696;53.686;10.094;2023-05-22T05:52:43;101464.16;;;18.30;100.00
19128;BME280;9696;53.686;10.094;2023-05-22T05:55:16;101452.59;;;18.64;100.00
19128;BME280;9696;53.686;10.094;2023-05-22T05:57:47;101448.88;;;18.81;100.00
19128;BME280;9696;53.686;10.094;2023-05-22T06:00:24;101446.88;;;18.99;100.00
19128;BME280;9696;53.686;10.094;2023-05-22T06:02:54;101442.47;;;19.30;100.00
19128;BME280;9696;53.686;10.094;2023-05-22T06:05:33;101439.28;;;19.43;100.00
19128;BME280;9696;53.686;10.094;2023-05-22T06:08:14;101443.47;;;19.99;100.00
19128;BME280;9696;53.686;10.094;2023-05-22T06:10:43;101430.81;;;20.47;100.00
19128;BME280;9696;53.686;10.094;2023-05-22T06:13:17;101429.56;;;20.57;100.00
19128;BME280;9696;53.686;10.094;2023-05-22T06:15:46;101433.44;;;20.32;100.00
19128;BME280;9696;53.686;10.094;2023-05-22T06:18:16;101432.47;;;20.02;100.00
19128;BME280;9696;53.686;10.094;2023-05-22T06:20:45;101433.91;;;20.36;100.00
19128;BME280;9696;53.686;10.094;2023-05-22T06:23:14;101432.75;;;20.07;100.00
19128;BME280;9696;53.686;10.094;2023-05-22T06:25:44;101437.38;;;19.91;100.00
19128;BME280;9696;53.686;10.094;2023-05-22T06:28:13;101436.19;;;20.16;100.00
19128;BME280;9696;53.686;10.094;2023-05-22T06:30:44;101430.81;;;20.24;100.00
19128;BME280;9696;53.686;10.094;2023-05-22T06:33:17;101432.25;;;20.35;100.00
19128;BME280;9696;53.686;10.094;2023-05-22T06:35:47;101428.13;;;20.47;100.00
19128;BME280;9696;53.686;10.094;2023-05-22T06:38:16;101429.84;;;20.62;100.00
19128;BME280;9696;53.686;10.094;2023-05-22T06:40:46;101439.41;;;20.72;100.00
19128;BME280;9696;53.686;10.094;2023-05-22T06:43:21;101438.31;;;20.66;100.00
19128;BME280;9696;53.686;10.094;2023-05-22T06:45:56;101433.00;;;20.95;100.00
19128;BME280;9696;53.686;10.094;2023-05-22T06:48:38;101435.41;;;21.05;100.00
19128;BME280;9696;53.686;10.094;2023-05-22T06:51:13;101434.81;;;20.65;100.00
19128;BME280;9696;53.686;10.094;2023-05-22T06:53:45;101437.75;;;20.70;100.00
19128;BME280;9696;53.686;10.094;2023-05-22T06:56:19;101438.97;;;20.68;100.00
19128;BME280;9696;53.686;10.094;2023-05-22T06:58:53;101440.72;;;20.90;100.00
19128;BME280;9696;53.686;10.094;2023-05-22T07:01:31;101433.69;;;21.27;100.00
19128;BME280;9696;53.686;10.094;2023-05-22T07:04:08;101439.03;;;21.12;100.00
19128;BME280;9696;53.686;10.094;2023-05-22T07:06:56;101432.03;;;21.26;100.00
19128;BME280;9696;53.686;10.094;2023-05-22T07:09:25;101428.56;;;21.25;100.00
19128;BME280;9696;53.686;10.094;2023-05-22T07:11:54;101438.91;;;21.85;100.00
19128;BME280;9696;53.686;10.094;2023-05-22T07:14:24;101431.84;;;21.78;100.00
19128;BME280;9696;53.686;10.094;2023-05-22T07:16:54;101429.44;;;22.19;100.00
19128;BME280;9696;53.686;10.094;2023-05-22T07:19:28;101426.22;;;21.87;100.00
19128;BME280;9696;53.686;10.094;2023-05-22T07:22:01;101426.59;;;22.69;100.00
19128;BME280;9696;53.686;10.094;2023-05-22T07:24:32;101424.94;;;22.68;100.00
19128;BME280;9696;53.686;10.094;2023-05-22T07:27:02;101427.31;;;22.84;100.00
19128;BME280;9696;53.686;10.094;2023-05-22T07:29:33;101424.94;;;23.37;100.00
19128;BME280;9696;53.686;10.094;2023-05-22T07:32:07;101408.19;;;22.87;100.00
19128;BME280;9696;53.686;10.094;2023-05-22T07:34:36;101414.31;;;23.09;100.00
19128;BME280;9696;53.686;10.094;2023-05-22T07:37:10;101416.19;;;23.56;100.00
19128;BME280;9696;53.686;10.094;2023-05-22T07:39:40;101410.91;;;23.76;100.00
19128;BME280;9696;53.686;10.094;2023-05-22T07:42:10;101407.47;;;24.15;100.00
19128;BME280;9696;53.686;10.094;2023-05-22T07:44:48;101410.19;;;24.61;100.00
19128;BME280;9696;53.686;10.094;2023-05-22T07:47:20;101413.00;;;24.00;100.00
19128;BME280;9696;53.686;10.094;2023-05-22T07:49:50;101411.81;;;24.68;100.00
19128;BME280;9696;53.686;10.094;2023-05-22T07:52:19;101405.00;;;24.66;100.00
19128;BME280;9696;53.686;10.094;2023-05-22T07:54:51;101406.66;;;24.34;100.00
19128;BME280;9696;53.686;10.094;2023-05-22T07:57:20;101400.47;;;24.73;100.00
19128;BME280;9696;53.686;10.094;2023-05-22T07:59:51;101411.63;;;24.24;100.00
19128;BME280;9696;53.686;10.094;2023-05-22T08:02:21;101409.75;;;24.31;100.00
19128;BME280;9696;53.686;10.094;2023-05-22T08:04:51;101403.81;;;25.32;100.00
19128;BME280;9696;53.686;10.094;2023-05-22T08:07:20;101408.88;;;25.16;100.00
19128;BME280;9696;53.686;10.094;2023-05-22T08:09:49;101410.81;;;25.91;96.87
19128;BME280;9696;53.686;10.094;2023-05-22T08:12:18;101405.69;;;26.39;96.41
19128;BME280;9696;53.686;10.094;2023-05-22T08:14:47;101403.59;;;25.85;100.00
19128;BME280;9696;53.686;10.094;2023-05-22T08:17:17;101398.13;;;25.60;94.14
19128;BME280;9696;53.686;10.094;2023-05-22T08:19:47;101400.03;;;24.69;96.81
19128;BME280;9696;53.686;10.094;2023-05-22T08:22:16;101394.50;;;24.45;99.70
19128;BME280;9696;53.686;10.094;2023-05-22T08:24:45;101394.50;;;24.64;100.00
19128;BME280;9696;53.686;10.094;2023-05-22T08:27:15;101399.44;;;24.87;100.00
19128;BME280;9696;53.686;10.094;2023-05-22T08:29:44;101389.13;;;24.64;100.00
19128;BME280;9696;53.686;10.094;2023-05-22T08:32:13;101401.28;;;24.67;97.92
19128;BME280;9696;53.686;10.094;2023-05-22T08:34:42;101394.09;;;24.21;100.00
19128;BME280;9696;53.686;10.094;2023-05-22T08:37:14;101392.19;;;24.88;100.00
19128;BME280;9696;53.686;10.094;2023-05-22T08:39:43;101390.94;;;24.83;92.93
19128;BME280;9696;53.686;10.094;2023-05-22T08:42:12;101390.69;;;25.11;94.40
19128;BME280;9696;53.686;10.094;2023-05-22T08:44:41;101390.75;;;24.85;86.22
19128;BME280;9696;53.686;10.094;2023-05-22T08:47:11;101377.13;;;25.44;91.06
19128;BME280;9696;53.686;10.094;2023-05-22T08:49:42;101380.50;;;25.26;93.35
19128;BME280;9696;53.686;10.094;2023-05-22T08:52:20;101386.00;;;24.80;98.76
19128;BME280;9696;53.686;10.094;2023-05-22T08:54:53;101383.75;;;24.58;93.38
19128;BME280;9696;53.686;10.094;2023-05-22T08:57:23;101378.00;;;25.31;93.74
19128;BME280;9696;53.686;10.094;2023-05-22T08:59:54;101378.22;;;25.30;87.69
19128;BME280;9696;53.686;10.094;2023-05-22T09:02:23;101375.84;;;25.53;93.04
19128;BME280;9696;53.686;10.094;2023-05-22T09:04:53;101366.00;;;25.78;93.15
19128;BME280;9696;53.686;10.094;2023-05-22T09:07:25;101368.44;;;25.87;90.80
19128;BME280;9696;53.686;10.094;2023-05-22T09:09:54;101360.53;;;26.23;97.57
19128;BME280;9696;53.686;10.094;2023-05-22T09:12:25;101362.66;;;25.83;94.21
19128;BME280;9696;53.686;10.094;2023-05-22T09:14:54;101362.25;;;25.42;86.79
19128;BME280;9696;53.686;10.094;2023-05-22T09:17:25;101362.19;;;26.17;88.83
19128;BME280;9696;53.686;10.094;2023-05-22T09:19:58;101359.56;;;25.42;92.81
19128;BME280;9696;53.686;10.094;2023-05-22T09:22:35;101357.75;;;25.36;91.91
19128;BME280;9696;53.686;10.094;2023-05-22T09:25:06;101361.88;;;26.07;90.15
19128;BME280;9696;53.686;10.094;2023-05-22T09:27:35;101353.72;;;26.82;89.03
19128;BME280;9696;53.686;10.094;2023-05-22T09:30:08;101358.13;;;26.08;84.30
19128;BME280;9696;53.686;10.094;2023-05-22T09:32:37;101345.78;;;26.68;86.60
19128;BME280;9696;53.686;10.094;2023-05-22T09:35:07;101341.41;;;26.74;83.22
19128;BME280;9696;53.686;10.094;2023-05-22T09:37:39;101343.50;;;26.29;92.78
19128;BME280;9696;53.686;10.094;2023-05-22T09:40:10;101346.00;;;26.67;80.68
19128;BME280;9696;53.686;10.094;2023-05-22T09:42:43;101336.97;;;26.80;81.48
19128;BME280;9696;53.686;10.094;2023-05-22T09:45:13;101338.84;;;27.15;79.27
19128;BME280;9696;53.686;10.094;2023-05-22T09:47:48;101343.66;;;26.34;81.81
19128;BME280;9696;53.686;10.094;2023-05-22T09:50:17;101342.31;;;27.34;84.47
19128;BME280;9696;53.686;10.094;2023-05-22T09:52:49;101341.16;;;26.57;76.98
19128;BME280;9696;53.686;10.094;2023-05-22T09:55:19;101339.34;;;26.94;nan
19128;BME280;9696;53.686;10.094;2023-05-22T09:57:51;101330.97;;;26.41;82.70
19128;BME280;9696;53.686;10.094;2023-05-22T10:00:23;101333.63;;;26.23;81.04
19128;BME280;9696;53.686;10.094;2023-05-22T10:02:56;101344.59;;;26.64;83.38
19128;BME280;9696;53.686;10.094;2023-05-22T10:05:31;101334.75;;;26.34;83.88
19128;BME280;9696;53.686;10.094;2023-05-22T10:08:08;101328.53;;;26.58;79.41
19128;BME280;9696;53.686;10.094;2023-05-22T10:10:40;101328.78;;;27.82;79.18
19128;BME280;9696;53.686;10.094;2023-05-22T10:13:11;101327.84;;;26.81;77.57
19128;BME280;9696;53.686;10.094;2023-05-22T10:15:41;101318.81;;;26.93;74.88
19128;BME280;9696;53.686;10.094;2023-05-22T10:18:10;101314.09;;;26.70;73.75
19128;BME280;9696;53.686;10.094;2023-05-22T10:20:40;101312.00;;;26.91;74.00
19128;BME280;9696;53.686;10.094;2023-05-22T10:23:11;101310.66;;;27.00;73.98
19128;BME280;9696;53.686;10.094;2023-05-22T10:25:42;101313.13;;;26.65;62.96
19128;BME280;9696;53.686;10.094;2023-05-22T10:28:15;101305.53;;;28.34;59.62
19128;BME280;9696;53.686;10.094;2023-05-22T10:30:55;101309.13;;;26.67;66.34
19128;BME280;9696;53.686;10.094;2023-05-22T10:33:30;101301.53;;;27.31;64.50
19128;BME280;9696;53.686;10.094;2023-05-22T10:36:03;101297.22;;;27.71;64.95
19128;BME280;9696;53.686;10.094;2023-05-22T10:38:49;101293.41;;;28.02;52.61
19128;BME280;9696;53.686;10.094;2023-05-22T10:41:20;101287.16;;;28.83;52.94
19128;BME280;9696;53.686;10.094;2023-05-22T10:43:50;101291.00;;;27.71;66.25
19128;BME280;9696;53.686;10.094;2023-05-22T10:46:19;101288.75;;;28.32;53.78
19128;BME280;9696;53.686;10.094;2023-05-22T10:48:51;101287.59;;;27.63;59.07
19128;BME280;9696;53.686;10.094;2023-05-22T10:51:21;101293.34;;;27.07;54.07
19128;BME280;9696;53.686;10.094;2023-05-22T10:53:56;101285.56;;;27.17;57.25
19128;BME280;9696;53.686;10.094;2023-05-22T10:56:32;101274.56;;;27.49;50.52
19128;BME280;9696;53.686;10.094;2023-05-22T10:59:04;101280.03;;;28.07;49.37
19128;BME280;9696;53.686;10.094;2023-05-22T11:01:35;101284.38;;;27.13;50.13
19128;BME280;9696;53.686;10.094;2023-05-22T11:04:17;101268.41;;;27.95;48.79
19128;BME280;9696;53.686;10.094;2023-05-22T11:07:02;101273.50;;;27.50;51.52
19128;BME280;9696;53.686;10.094;2023-05-22T11:09:40;101271.50;;;26.79;51.17
19128;BME280;9696;53.686;10.094;2023-05-22T11:12:18;101263.63;;;26.66;56.77
19128;BME280;9696;53.686;10.094;2023-05-22T11:14:53;101274.09;;;26.92;58.99
19128;BME280;9696;53.686;10.094;2023-05-22T11:17:25;101265.38;;;27.08;54.28
19128;BME280;9696;53.686;10.094;2023-05-22T11:19:59;101257.38;;;26.47;64.30
19128;BME280;9696;53.686;10.094;2023-05-22T11:22:34;101257.34;;;27.61;57.19
19128;BME280;9696;53.686;10.094;2023-05-22T11:25:07;101245.28;;;26.93;54.81
19128;BME280;9696;53.686;10.094;2023-05-22T11:27:38;101241.63;;;26.33;55.80
19128;BME280;9696;53.686;10.094;2023-05-22T11:30:09;101249.25;;;26.90;58.30
19128;BME280;9696;53.686;10.094;2023-05-22T11:32:40;101237.03;;;27.06;57.54
19128;BME280;9696;53.686;10.094;2023-05-22T11:35:13;101238.19;;;26.25;69.68
19128;BME280;9696;53.686;10.094;2023-05-22T11:37:44;101233.47;;;26.39;67.10
19128;BME280;9696;53.686;10.094;2023-05-22T11:40:16;101227.69;;;26.72;66.37
19128;BME280;9696;53.686;10.094;2023-05-22T11:42:45;101229.28;;;26.43;64.28
19128;BME280;9696;53.686;10.094;2023-05-22T11:45:15;101234.16;;;26.53;77.73
19128;BME280;9696;53.686;10.094;2023-05-22T11:47:44;101228.56;;;26.54;68.53
19128;BME280;9696;53.686;10.094;2023-05-22T11:50:14;101234.38;;;26.69;62.40
19128;BME280;9696;53.686;10.094;2023-05-22T11:52:53;101233.81;;;26.79;61.35
19128;BME280;9696;53.686;10.094;2023-05-22T11:55:24;101227.84;;;27.25;62.97
19128;BME280;9696;53.686;10.094;2023-05-22T11:57:54;101228.63;;;27.55;64.96
19128;BME280;9696;53.686;10.094;2023-05-22T12:00:24;101207.66;;;28.27;45.80
19128;BME280;9696;53.686;10.094;2023-05-22T12:02:54;101224.88;;;28.38;50.03
19128;BME280;9696;53.686;10.094;2023-05-22T12:05:23;101215.16;;;27.90;51.41
19128;BME280;9696;53.686;10.094;2023-05-22T12:07:52;101214.94;;;27.57;56.21
19128;BME280;9696;53.686;10.094;2023-05-22T12:10:23;101211.28;;;27.75;54.53
19128;BME280;9696;53.686;10.094;2023-05-22T12:12:54;101207.53;;;27.99;54.40
19128;BME280;9696;53.686;10.094;2023-05-22T12:15:24;101207.41;;;27.71;55.53
19128;BME280;9696;53.686;10.094;2023-05-22T12:17:54;101199.13;;;28.70;58.60
19128;BME280;9696;53.686;10.094;2023-05-22T12:20:28;101204.53;;;27.42;48.73
19128;BME280;9696;53.686;10.094;2023-05-22T12:22:58;101208.94;;;28.36;59.81
19128;BME280;9696;53.686;10.094;2023-05-22T12:25:35;101201.75;;;28.42;61.74
19128;BME280;9696;53.686;10.094;2023-05-22T12:28:05;101197.09;;;27.91;54.66
19128;BME280;9696;53.686;10.094;2023-05-22T12:30:41;101195.13;;;27.75;54.56
19128;BME280;9696;53.686;10.094;2023-05-22T12:33:13;101203.28;;;27.45;55.25
19128;BME280;9696;53.686;10.094;2023-05-22T12:35:42;101202.13;;;27.11;56.05
19128;BME280;9696;53.686;10.094;2023-05-22T12:38:11;101194.53;;;27.49;57.89
19128;BME280;9696;53.686;10.094;2023-05-22T12:40:42;101186.13;;;27.39;52.95
19128;BME280;9696;53.686;10.094;2023-05-22T12:43:12;101202.63;;;27.19;67.02
19128;BME280;9696;53.686;10.094;2023-05-22T12:45:41;101191.94;;;27.54;58.04
19128;BME280;9696;53.686;10.094;2023-05-22T12:48:10;101197.25;;;27.31;63.50
19128;BME280;9696;53.686;10.094;2023-05-22T12:50:40;101186.00;;;27.34;58.57
19128;BME280;9696;53.686;10.094;2023-05-22T12:53:09;101179.28;;;27.67;54.76
19128;BME280;9696;53.686;10.094;2023-05-22T12:55:39;101176.47;;;28.20;57.45
19128;BME280;9696;53.686;10.094;2023-05-22T12:58:09;101181.97;;;27.67;56.36
19128;BME280;9696;53.686;10.094;2023-05-22T13:00:39;101169.28;;;28.02;58.71
19128;BME280;9696;53.686;10.094;2023-05-22T13:03:08;101156.91;;;28.81;51.89
19128;BME280;9696;53.686;10.094;2023-05-22T13:05:39;101161.66;;;28.62;53.13